sensor_id;sensor_type;location;lat;lon;timestamp;pressure;altitude;pressure_sealevel;temperature;humidity
61908;BME280;47864;52.526;19.672;2023-03-22T00:00:48;100849.75;;;2.87;100.00
61908;BME280;47864;52.526;19.672;2023-03-22T00:02:50;100834.03;;;2.87;100.00
61908;BME280;47864;52.526;19.672;2023-03-22T00:04:52;100847.59;;;2.93;100.00
61908;BME280;47864;52.526;19.672;2023-03-22T00:06:53;100840.00;;;2.89;100.00
61908;BME280;47864;52.526;19.672;2023-03-22T00:08:55;100847.69;;;2.78;100.00
61908;BME280;47864;52.526;19.672;2023-03-22T00:10:56;100847.50;;;2.66;100.00
61908;BME280;47864;52.526;19.672;2023-03-22T00:12:59;100848.16;;;2.42;100.00
61908;BME280;47864;52.526;19.672;2023-03-22T00:15:01;100822.44;;;2.20;100.00
61908;BME280;47864;52.526;19.672;2023-03-22T00:17:02;100841.72;;;2.33;100.00
61908;BME280;47864;52.526;19.672;2023-03-22T00:19:04;100841.53;;;2.36;100.00
61908;BME280;47864;52.526;19.672;2023-03-22T00:21:10;100839.38;;;2.43;100.00
61908;BME280;47864;52.526;19.672;2023-03-22T00:23:12;100829.84;;;2.56;100.00
61908;BME280;47864;52.526;19.672;2023-03-22T00:25:14;100813.13;;;2.44;100.00
61908;BME280;47864;52.526;19.672;2023-03-22T00:27:16;100825.16;;;2.61;100.00
61908;BME280;47864;52.526;19.672;2023-03-22T00:29:17;100827.34;;;2.54;100.00
61908;BME280;47864;52.526;19.672;2023-03-22T00:31:18;100827.13;;;2.43;100.00
61908;BME280;47864;52.526;19.672;2023-03-22T00:33:20;100830.94;;;2.09;100.00
61908;BME280;47864;52.526;19.672;2023-03-22T00:35:22;100801.16;;;1.82;100.00
61908;BME280;47864;52.526;19.672;2023-03-22T00:37:23;100826.91;;;2.04;100.00
61908;BME280;47864;52.526;19.672;2023-03-22T00:39:25;100810.84;;;2.10;100.00
61908;BME280;47864;52.526;19.672;2023-03-22T00:41:27;100820.00;;;2.31;100.00
61908;BME280;47864;52.526;19.672;2023-03-22T00:43:28;100798.06;;;2.05;100.00
61908;BME280;47864;52.526;19.672;2023-03-22T00:45:30;100814.13;;;2.13;100.00
61908;BME280;47864;52.526;19.672;2023-03-22T00:47:31;100830.69;;;2.28;100.00
61908;BME280;47864;52.526;19.672;2023-03-22T00:49:33;100820.31;;;2.41;100.00
61908;BME280;47864;52.526;19.672;2023-03-22T00:51:34;100824.59;;;2.56;100.00
61908;BME280;47864;52.526;19.672;2023-03-22T00:53:36;100824.88;;;2.65;100.00
61908;BME280;47864;52.526;19.672;2023-03-22T00:55:37;100821.97;;;2.70;100.00
61908;BME280;47864;52.526;19.672;2023-03-22T00:57:39;100806.94;;;2.45;100.00
61908;BME280;47864;52.526;19.672;2023-03-22T00:59:40;100815.16;;;2.25;100.00
61908;BME280;47864;52.526;19.672;2023-03-22T01:01:42;100811.06;;;2.35;100.00
61908;BME280;47864;52.526;19.672;2023-03-22T01:03:44;100811.03;;;2.49;100.00
61908;BME280;47864;52.526;19.672;2023-03-22T01:05:47;100817.09;;;2.64;100.00
61908;BME280;47864;52.526;19.672;2023-03-22T01:07:48;100806.66;;;2.36;100.00
61908;BME280;47864;52.526;19.672;2023-03-22T01:09:50;100804.78;;;2.23;100.00
61908;BME280;47864;52.526;19.672;2023-03-22T01:11:53;100792.06;;;2.32;100.00
61908;BME280;47864;52.526;19.672;2023-03-22T01:13:55;100774.97;;;2.26;100.00
61908;BME280;47864;52.526;19.672;2023-03-22T01:15:56;100790.28;;;2.32;100.00
61908;BME280;47864;52.526;19.672;2023-03-22T01:17:58;100779.81;;;2.32;100.00
61908;BME280;47864;52.526;19.672;2023-03-22T01:20:00;100769.44;;;2.45;100.00
61908;BME280;47864;52.526;19.672;2023-03-22T01:22:03;100772.50;;;2.65;100.00
61908;BME280;47864;52.526;19.672;2023-03-22T01:24:05;100780.34;;;2.80;100.00
61908;BME280;47864;52.526;19.672;2023-03-22T01:26:07;100773.78;;;2.87;100.00
61908;BME280;47864;52.526;19.672;2023-03-22T01:28:08;100769.63;;;2.97;100.00
61908;BME280;47864;52.526;19.672;2023-03-22T01:30:11;100751.19;;;2.98;100.00
61908;BME280;47864;52.526;19.672;2023-03-22T01:32:13;100752.81;;;3.14;100.00
61908;BME280;47864;52.526;19.672;2023-03-22T01:34:15;100766.06;;;3.25;100.00
61908;BME280;47864;52.526;19.672;2023-03-22T01:36:16;100750.41;;;3.11;100.00
61908;BME280;47864;52.526;19.672;2023-03-22T01:38:18;100761.63;;;3.13;100.00
61908;BME280;47864;52.526;19.672;2023-03-22T01:40:20;100759.34;;;3.21;100.00
61908;BME280;47864;52.526;19.672;2023-03-22T01:42:22;100761.13;;;3.20;100.00
61908;BME280;47864;52.526;19.672;2023-03-22T01:44:24;100748.41;;;3.14;100.00
61908;BME280;47864;52.526;19.672;2023-03-22T01:46:25;100730.63;;;3.19;100.00
61908;BME280;47864;52.526;19.672;2023-03-22T01:50:30;100728.25;;;3.02;100.00
61908;BME280;47864;52.526;19.672;2023-03-22T01:52:32;100752.63;;;3.17;100.00
61908;BME280;47864;52.526;19.672;2023-03-22T01:54:41;100744.44;;;3.21;100.00
61908;BME280;47864;52.526;19.672;2023-03-22T01:56:44;100745.50;;;3.19;100.00
61908;BME280;47864;52.526;19.672;2023-03-22T01:58:47;100743.00;;;3.30;100.00
61908;BME280;47864;52.526;19.672;2023-03-22T02:00:50;100736.44;;;3.10;100.00
61908;BME280;47864;52.526;19.672;2023-03-22T02:02:52;100725.53;;;3.03;100.00
61908;BME280;47864;52.526;19.672;2023-03-22T02:04:54;100719.63;;;3.00;100.00
61908;BME280;47864;52.526;19.672;2023-03-22T02:06:57;100741.63;;;2.97;100.00
61908;BME280;47864;52.526;19.672;2023-03-22T02:08:59;100735.78;;;2.94;100.00
61908;BME280;47864;52.526;19.672;2023-03-22T02:11:01;100730.78;;;3.03;100.00
61908;BME280;47864;52.526;19.672;2023-03-22T02:13:23;100727.44;;;3.14;100.00
61908;BME280;47864;52.526;19.672;2023-03-22T02:15:32;100722.53;;;3.22;100.00
61908;BME280;47864;52.526;19.672;2023-03-22T02:20:27;100721.56;;;3.11;100.00
61908;BME280;47864;52.526;19.672;2023-03-22T02:27:21;100706.84;;;2.95;100.00
61908;BME280;47864;52.526;19.672;2023-03-22T02:29:37;100712.19;;;2.94;100.00
61908;BME280;47864;52.526;19.672;2023-03-22T02:37:02;100696.59;;;3.05;100.00
61908;BME280;47864;52.526;19.672;2023-03-22T02:39:30;100704.06;;;3.11;100.00
61908;BME280;47864;52.526;19.672;2023-03-22T02:50:14;100707.13;;;3.18;100.00
61908;BME280;47864;52.526;19.672;2023-03-22T02:52:34;100707.06;;;3.05;100.00
61908;BME280;47864;52.526;19.672;2023-03-22T02:57:57;100705.09;;;3.09;100.00
61908;BME280;47864;52.526;19.672;2023-03-22T03:00:02;100687.94;;;2.90;100.00
61908;BME280;47864;52.526;19.672;2023-03-22T03:02:07;100699.84;;;2.96;100.00
61908;BME280;47864;52.526;19.672;2023-03-22T03:04:18;100683.78;;;2.88;100.00
61908;BME280;47864;52.526;19.672;2023-03-22T03:06:23;100697.88;;;3.12;100.00
61908;BME280;47864;52.526;19.672;2023-03-22T03:08:27;100688.25;;;3.13;100.00
61908;BME280;47864;52.526;19.672;2023-03-22T03:10:30;100689.06;;;3.13;100.00
61908;BME280;47864;52.526;19.672;2023-03-22T03:12:31;100683.34;;;3.21;100.00
61908;BME280;47864;52.526;19.672;2023-03-22T03:14:33;100690.22;;;3.22;100.00
61908;BME280;47864;52.526;19.672;2023-03-22T03:16:34;100691.63;;;3.27;100.00
61908;BME280;47864;52.526;19.672;2023-03-22T03:19:02;100672.94;;;3.19;100.00
61908;BME280;47864;52.526;19.672;2023-03-22T03:23:46;100685.66;;;3.38;100.00
61908;BME280;47864;52.526;19.672;2023-03-22T03:30:27;100666.03;;;3.18;100.00
61908;BME280;47864;52.526;19.672;2023-03-22T03:32:34;100695.00;;;3.29;100.00
61908;BME280;47864;52.526;19.672;2023-03-22T03:34:43;100688.78;;;3.30;100.00
61908;BME280;47864;52.526;19.672;2023-03-22T03:36:55;100693.13;;;3.44;100.00
61908;BME280;47864;52.526;19.672;2023-03-22T03:39:01;100700.56;;;3.50;100.00
61908;BME280;47864;52.526;19.672;2023-03-22T03:41:13;100702.03;;;3.54;100.00
61908;BME280;47864;52.526;19.672;2023-03-22T03:43:16;100704.97;;;3.50;100.00
61908;BME280;47864;52.526;19.672;2023-03-22T03:45:19;100704.44;;;3.44;100.00
61908;BME280;47864;52.526;19.672;2023-03-22T03:47:22;100701.28;;;3.39;100.00
61908;BME280;47864;52.526;19.672;2023-03-22T03:49:24;100695.41;;;3.36;100.00
61908;BME280;47864;52.526;19.672;2023-03-22T03:51:26;100700.66;;;3.36;100.00
61908;BME280;47864;52.526;19.672;2023-03-22T03:53:29;100698.13;;;3.34;100.00
61908;BME280;47864;52.526;19.672;2023-03-22T03:55:31;100694.16;;;3.29;100.00
61908;BME280;47864;52.526;19.672;2023-03-22T03:57:33;100694.78;;;3.32;100.00
61908;BME280;47864;52.526;19.672;2023-03-22T03:59:35;100694.69;;;3.34;100.00
61908;BME280;47864;52.526;19.672;2023-03-22T04:01:36;100685.78;;;3.36;100.00
61908;BME280;47864;52.526;19.672;2023-03-22T04:03:38;100676.84;;;3.39;100.00
61908;BME280;47864;52.526;19.672;2023-03-22T04:05:39;100674.53;;;3.34;100.00
61908;BME280;47864;52.526;19.672;2023-03-22T04:07:41;100656.16;;;3.22;100.00
61908;BME280;47864;52.526;19.672;2023-03-22T04:09:42;100671.28;;;3.31;100.00
61908;BME280;47864;52.526;19.672;2023-03-22T04:11:44;100661.25;;;3.37;100.00
61908;BME280;47864;52.526;19.672;2023-03-22T04:13:45;100669.00;;;3.52;100.00
61908;BME280;47864;52.526;19.672;2023-03-22T04:15:51;100676.31;;;3.47;100.00
61908;BME280;47864;52.526;19.672;2023-03-22T04:17:53;100676.78;;;3.53;100.00
61908;BME280;47864;52.526;19.672;2023-03-22T04:19:55;100663.34;;;3.58;100.00
61908;BME280;47864;52.526;19.672;2023-03-22T04:21:56;100674.25;;;3.64;100.00
61908;BME280;47864;52.526;19.672;2023-03-22T04:23:58;100664.59;;;3.65;100.00
61908;BME280;47864;52.526;19.672;2023-03-22T04:25:59;100656.22;;;3.60;100.00
61908;BME280;47864;52.526;19.672;2023-03-22T04:28:01;100672.25;;;3.68;100.00
61908;BME280;47864;52.526;19.672;2023-03-22T04:30:04;100668.59;;;3.70;100.00
61908;BME280;47864;52.526;19.672;2023-03-22T04:32:06;100674.25;;;3.77;100.00
61908;BME280;47864;52.526;19.672;2023-03-22T04:34:08;100651.88;;;3.71;100.00
61908;BME280;47864;52.526;19.672;2023-03-22T04:36:09;100674.97;;;3.79;100.00
61908;BME280;47864;52.526;19.672;2023-03-22T04:38:11;100675.50;;;3.84;100.00
61908;BME280;47864;52.526;19.672;2023-03-22T04:40:13;100665.84;;;3.72;100.00
61908;BME280;47864;52.526;19.672;2023-03-22T04:42:15;100674.97;;;3.92;100.00
61908;BME280;47864;52.526;19.672;2023-03-22T04:44:17;100663.13;;;3.86;100.00
61908;BME280;47864;52.526;19.672;2023-03-22T04:46:18;100675.59;;;4.08;100.00
61908;BME280;47864;52.526;19.672;2023-03-22T04:48:20;100677.22;;;4.21;100.00
61908;BME280;47864;52.526;19.672;2023-03-22T04:50:21;100665.22;;;4.30;100.00
61908;BME280;47864;52.526;19.672;2023-03-22T04:52:23;100670.66;;;4.52;100.00
61908;BME280;47864;52.526;19.672;2023-03-22T04:54:25;100677.44;;;4.55;100.00
61908;BME280;47864;52.526;19.672;2023-03-22T04:56:26;100654.03;;;4.52;100.00
61908;BME280;47864;52.526;19.672;2023-03-22T04:58:28;100658.13;;;4.56;100.00
61908;BME280;47864;52.526;19.672;2023-03-22T05:00:30;100683.91;;;4.75;100.00
61908;BME280;47864;52.526;19.672;2023-03-22T05:02:31;100682.50;;;4.82;100.00
61908;BME280;47864;52.526;19.672;2023-03-22T05:04:32;100661.19;;;4.74;100.00
61908;BME280;47864;52.526;19.672;2023-03-22T05:06:34;100682.22;;;4.97;100.00
61908;BME280;47864;52.526;19.672;2023-03-22T05:08:35;100665.88;;;5.05;100.00
61908;BME280;47864;52.526;19.672;2023-03-22T05:10:40;100668.78;;;5.13;100.00
61908;BME280;47864;52.526;19.672;2023-03-22T05:12:42;100648.09;;;5.09;100.00
61908;BME280;47864;52.526;19.672;2023-03-22T05:14:43;100667.50;;;5.19;100.00
61908;BME280;47864;52.526;19.672;2023-03-22T05:16:45;100661.25;;;5.09;100.00
61908;BME280;47864;52.526;19.672;2023-03-22T05:18:47;100656.09;;;5.07;100.00
61908;BME280;47864;52.526;19.672;2023-03-22T05:20:48;100658.41;;;5.23;100.00
61908;BME280;47864;52.526;19.672;2023-03-22T05:22:49;100661.03;;;5.23;100.00
61908;BME280;47864;52.526;19.672;2023-03-22T05:24:51;100662.78;;;5.11;100.00
61908;BME280;47864;52.526;19.672;2023-03-22T05:26:52;100660.94;;;5.24;100.00
61908;BME280;47864;52.526;19.672;2023-03-22T05:28:54;100639.03;;;5.24;100.00
61908;BME280;47864;52.526;19.672;2023-03-22T05:30:56;100666.34;;;5.34;100.00
61908;BME280;47864;52.526;19.672;2023-03-22T05:32:59;100646.56;;;5.17;100.00
61908;BME280;47864;52.526;19.672;2023-03-22T05:35:01;100651.25;;;5.25;100.00
61908;BME280;47864;52.526;19.672;2023-03-22T05:37:03;100645.25;;;5.23;100.00
61908;BME280;47864;52.526;19.672;2023-03-22T05:39:04;100641.91;;;5.21;100.00
61908;BME280;47864;52.526;19.672;2023-03-22T05:41:06;100660.34;;;5.32;100.00
61908;BME280;47864;52.526;19.672;2023-03-22T05:43:07;100662.72;;;5.24;100.00
61908;BME280;47864;52.526;19.672;2023-03-22T05:45:09;100662.09;;;5.20;100.00
61908;BME280;47864;52.526;19.672;2023-03-22T05:47:11;100653.28;;;5.32;100.00
61908;BME280;47864;52.526;19.672;2023-03-22T05:49:12;100658.09;;;5.39;100.00
61908;BME280;47864;52.526;19.672;2023-03-22T05:51:15;100646.34;;;5.31;100.00
61908;BME280;47864;52.526;19.672;2023-03-22T05:53:16;100650.09;;;5.40;100.00
61908;BME280;47864;52.526;19.672;2023-03-22T05:55:18;100653.03;;;5.24;100.00
61908;BME280;47864;52.526;19.672;2023-03-22T05:57:20;100611.03;;;5.01;100.00
61908;BME280;47864;52.526;19.672;2023-03-22T05:59:21;100638.81;;;5.27;100.00
61908;BME280;47864;52.526;19.672;2023-03-22T06:01:23;100639.03;;;5.24;100.00
61908;BME280;47864;52.526;19.672;2023-03-22T06:03:24;100632.09;;;5.23;100.00
61908;BME280;47864;52.526;19.672;2023-03-22T06:05:26;100637.00;;;5.27;100.00
61908;BME280;47864;52.526;19.672;2023-03-22T06:07:27;100622.31;;;5.36;100.00
61908;BME280;47864;52.526;19.672;2023-03-22T06:09:29;100637.06;;;5.50;100.00
61908;BME280;47864;52.526;19.672;2023-03-22T06:11:30;100633.00;;;5.57;100.00
61908;BME280;47864;52.526;19.672;2023-03-22T06:13:32;100640.66;;;5.71;100.00
61908;BME280;47864;52.526;19.672;2023-03-22T06:15:34;100615.91;;;5.62;100.00
61908;BME280;47864;52.526;19.672;2023-03-22T06:17:36;100639.84;;;5.82;100.00
61908;BME280;47864;52.526;19.672;2023-03-22T06:19:37;100642.75;;;5.90;100.00
61908;BME280;47864;52.526;19.672;2023-03-22T06:21:39;100615.47;;;5.91;100.00
61908;BME280;47864;52.526;19.672;2023-03-22T06:23:40;100626.47;;;5.96;100.00
61908;BME280;47864;52.526;19.672;2023-03-22T06:25:42;100637.78;;;5.85;100.00
61908;BME280;47864;52.526;19.672;2023-03-22T06:27:43;100641.25;;;5.86;100.00
61908;BME280;47864;52.526;19.672;2023-03-22T06:29:45;100643.59;;;5.90;100.00
61908;BME280;47864;52.526;19.672;2023-03-22T06:31:47;100642.63;;;5.91;100.00
61908;BME280;47864;52.526;19.672;2023-03-22T06:33:48;100640.25;;;5.99;100.00
61908;BME280;47864;52.526;19.672;2023-03-22T06:35:50;100627.41;;;5.84;100.00
61908;BME280;47864;52.526;19.672;2023-03-22T06:37:51;100637.94;;;6.06;100.00
61908;BME280;47864;52.526;19.672;2023-03-22T06:39:53;100593.66;;;5.55;100.00
61908;BME280;47864;52.526;19.672;2023-03-22T06:41:54;100617.56;;;5.86;100.00
61908;BME280;47864;52.526;19.672;2023-03-22T06:43:56;100635.31;;;5.95;100.00
61908;BME280;47864;52.526;19.672;2023-03-22T06:45:57;100612.69;;;6.03;100.00
61908;BME280;47864;52.526;19.672;2023-03-22T06:47:59;100623.84;;;6.07;100.00
61908;BME280;47864;52.526;19.672;2023-03-22T06:50:01;100630.97;;;6.27;100.00
61908;BME280;47864;52.526;19.672;2023-03-22T06:52:03;100604.91;;;6.24;100.00
61908;BME280;47864;52.526;19.672;2023-03-22T06:54:05;100612.53;;;6.38;100.00
61908;BME280;47864;52.526;19.672;2023-03-22T06:56:06;100631.78;;;6.39;100.00
61908;BME280;47864;52.526;19.672;2023-03-22T06:58:08;100629.44;;;6.68;100.00
61908;BME280;47864;52.526;19.672;2023-03-22T07:00:10;100628.53;;;6.58;100.00
61908;BME280;47864;52.526;19.672;2023-03-22T07:02:12;100611.66;;;6.49;100.00
61908;BME280;47864;52.526;19.672;2023-03-22T07:04:13;100625.84;;;6.69;100.00
61908;BME280;47864;52.526;19.672;2023-03-22T07:06:15;100616.94;;;6.81;100.00
61908;BME280;47864;52.526;19.672;2023-03-22T07:08:17;100617.50;;;6.84;100.00
61908;BME280;47864;52.526;19.672;2023-03-22T07:10:18;100605.34;;;6.93;100.00
61908;BME280;47864;52.526;19.672;2023-03-22T07:12:20;100617.84;;;7.12;100.00
61908;BME280;47864;52.526;19.672;2023-03-22T07:14:22;100616.50;;;7.17;100.00
61908;BME280;47864;52.526;19.672;2023-03-22T07:16:24;100617.28;;;7.29;100.00
61908;BME280;47864;52.526;19.672;2023-03-22T07:18:26;100611.34;;;7.37;100.00
61908;BME280;47864;52.526;19.672;2023-03-22T07:20:28;100597.25;;;7.26;100.00
61908;BME280;47864;52.526;19.672;2023-03-22T07:22:29;100591.53;;;7.21;100.00
61908;BME280;47864;52.526;19.672;2023-03-22T07:24:31;100609.69;;;7.36;100.00
61908;BME280;47864;52.526;19.672;2023-03-22T07:26:32;100606.59;;;7.31;100.00
61908;BME280;47864;52.526;19.672;2023-03-22T07:28:34;100605.53;;;7.43;100.00
61908;BME280;47864;52.526;19.672;2023-03-22T07:30:36;100585.88;;;7.47;100.00
61908;BME280;47864;52.526;19.672;2023-03-22T07:32:39;100606.75;;;7.59;100.00
61908;BME280;47864;52.526;19.672;2023-03-22T07:34:40;100600.31;;;7.83;100.00
61908;BME280;47864;52.526;19.672;2023-03-22T07:36:42;100592.22;;;7.75;100.00
61908;BME280;47864;52.526;19.672;2023-03-22T07:38:43;100600.94;;;7.96;100.00
61908;BME280;47864;52.526;19.672;2023-03-22T07:40:45;100602.75;;;7.95;100.00
61908;BME280;47864;52.526;19.672;2023-03-22T07:42:47;100609.75;;;8.06;100.00
61908;BME280;47864;52.526;19.672;2023-03-22T07:44:49;100599.16;;;8.16;100.00
61908;BME280;47864;52.526;19.672;2023-03-22T07:46:51;100606.69;;;8.11;100.00
61908;BME280;47864;52.526;19.672;2023-03-22T07:48:52;100601.28;;;8.22;100.00
61908;BME280;47864;52.526;19.672;2023-03-22T07:50:54;100593.88;;;8.16;100.00
61908;BME280;47864;52.526;19.672;2023-03-22T07:52:56;100600.69;;;8.09;100.00
61908;BME280;47864;52.526;19.672;2023-03-22T07:54:57;100601.44;;;8.20;100.00
61908;BME280;47864;52.526;19.672;2023-03-22T07:56:59;100607.09;;;8.16;100.00
61908;BME280;47864;52.526;19.672;2023-03-22T07:59:01;100594.75;;;8.26;100.00
61908;BME280;47864;52.526;19.672;2023-03-22T08:01:06;100605.38;;;8.35;100.00
61908;BME280;47864;52.526;19.672;2023-03-22T08:03:11;100601.25;;;8.62;100.00
61908;BME280;47864;52.526;19.672;2023-03-22T08:05:12;100594.84;;;8.55;100.00
61908;BME280;47864;52.526;19.672;2023-03-22T08:07:14;100590.50;;;8.83;100.00
61908;BME280;47864;52.526;19.672;2023-03-22T08:09:16;100576.47;;;8.72;100.00
61908;BME280;47864;52.526;19.672;2023-03-22T08:11:18;100599.03;;;8.76;100.00
61908;BME280;47864;52.526;19.672;2023-03-22T08:13:20;100595.53;;;8.95;100.00
61908;BME280;47864;52.526;19.672;2023-03-22T08:15:21;100584.75;;;9.26;100.00
61908;BME280;47864;52.526;19.672;2023-03-22T08:17:23;100589.47;;;9.41;100.00
61908;BME280;47864;52.526;19.672;2023-03-22T08:19:25;100579.22;;;9.56;100.00
61908;BME280;47864;52.526;19.672;2023-03-22T08:21:27;100584.25;;;9.59;100.00
61908;BME280;47864;52.526;19.672;2023-03-22T08:23:28;100584.81;;;9.90;100.00
61908;BME280;47864;52.526;19.672;2023-03-22T08:25:42;100569.91;;;9.89;100.00
61908;BME280;47864;52.526;19.672;2023-03-22T08:27:44;100579.72;;;9.79;100.00
61908;BME280;47864;52.526;19.672;2023-03-22T08:29:46;100581.38;;;10.07;100.00
61908;BME280;47864;52.526;19.672;2023-03-22T08:31:48;100560.78;;;10.01;100.00
61908;BME280;47864;52.526;19.672;2023-03-22T08:33:50;100564.06;;;10.13;100.00
61908;BME280;47864;52.526;19.672;2023-03-22T08:36:03;100586.53;;;10.18;100.00
61908;BME280;47864;52.526;19.672;2023-03-22T08:38:05;100573.53;;;10.15;100.00
61908;BME280;47864;52.526;19.672;2023-03-22T08:40:07;100581.91;;;10.38;100.00
61908;BME280;47864;52.526;19.672;2023-03-22T08:42:09;100577.44;;;10.21;100.00
61908;BME280;47864;52.526;19.672;2023-03-22T08:44:10;100558.22;;;9.82;100.00
61908;BME280;47864;52.526;19.672;2023-03-22T08:46:12;100577.34;;;9.76;100.00
61908;BME280;47864;52.526;19.672;2023-03-22T08:48:15;100574.94;;;9.82;100.00
61908;BME280;47864;52.526;19.672;2023-03-22T08:50:16;100564.50;;;9.81;100.00
61908;BME280;47864;52.526;19.672;2023-03-22T08:52:18;100566.22;;;9.72;100.00
61908;BME280;47864;52.526;19.672;2023-03-22T08:54:19;100580.84;;;9.76;100.00
61908;BME280;47864;52.526;19.672;2023-03-22T08:56:21;100575.69;;;9.75;100.00
61908;BME280;47864;52.526;19.672;2023-03-22T08:58:23;100561.16;;;9.51;100.00
61908;BME280;47864;52.526;19.672;2023-03-22T09:00:25;100584.00;;;9.52;100.00
61908;BME280;47864;52.526;19.672;2023-03-22T09:02:30;100577.53;;;9.65;100.00
61908;BME280;47864;52.526;19.672;2023-03-22T09:04:33;100577.75;;;9.44;100.00
61908;BME280;47864;52.526;19.672;2023-03-22T09:06:34;100412.97;;;8.49;100.00
61908;BME280;47864;52.526;19.672;2023-03-22T09:08:36;100566.59;;;9.50;100.00
61908;BME280;47864;52.526;19.672;2023-03-22T09:10:38;100571.94;;;9.68;100.00
61908;BME280;47864;52.526;19.672;2023-03-22T09:12:39;100562.94;;;9.61;100.00
61908;BME280;47864;52.526;19.672;2023-03-22T09:14:41;100562.09;;;9.60;100.00
61908;BME280;47864;52.526;19.672;2023-03-22T09:16:43;100565.03;;;9.84;100.00
61908;BME280;47864;52.526;19.672;2023-03-22T09:18:44;100565.53;;;10.25;100.00
61908;BME280;47864;52.526;19.672;2023-03-22T09:20:46;100578.25;;;9.94;100.00
61908;BME280;47864;52.526;19.672;2023-03-22T09:22:47;100562.34;;;10.21;100.00
61908;BME280;47864;52.526;19.672;2023-03-22T09:24:49;100576.28;;;10.23;100.00
61908;BME280;47864;52.526;19.672;2023-03-22T09:26:50;100573.66;;;10.23;100.00
61908;BME280;47864;52.526;19.672;2023-03-22T09:28:52;100577.16;;;10.42;100.00
61908;BME280;47864;52.526;19.672;2023-03-22T09:30:53;100580.19;;;10.82;100.00
61908;BME280;47864;52.526;19.672;2023-03-22T09:32:55;100565.09;;;10.65;100.00
61908;BME280;47864;52.526;19.672;2023-03-22T09:34:57;100568.06;;;10.80;100.00
61908;BME280;47864;52.526;19.672;2023-03-22T09:36:58;100575.28;;;10.52;100.00
61908;BME280;47864;52.526;19.672;2023-03-22T09:39:00;100565.44;;;10.62;100.00
61908;BME280;47864;52.526;19.672;2023-03-22T09:41:05;100567.91;;;10.63;100.00
61908;BME280;47864;52.526;19.672;2023-03-22T09:43:08;100567.00;;;10.90;100.00
61908;BME280;47864;52.526;19.672;2023-03-22T09:45:22;100569.66;;;10.73;100.00
61908;BME280;47864;52.526;19.672;2023-03-22T09:47:46;100546.81;;;10.80;100.00
61908;BME280;47864;52.526;19.672;2023-03-22T09:49:53;100555.25;;;10.93;100.00
61908;BME280;47864;52.526;19.672;2023-03-22T09:51:57;100556.38;;;10.73;100.00
61908;BME280;47864;52.526;19.672;2023-03-22T09:53:59;100545.41;;;10.67;100.00
61908;BME280;47864;52.526;19.672;2023-03-22T09:56:13;100553.66;;;10.82;100.00
61908;BME280;47864;52.526;19.672;2023-03-22T09:58:32;100533.28;;;11.09;100.00
61908;BME280;47864;52.526;19.672;2023-03-22T10:00:40;100550.31;;;11.50;100.00
61908;BME280;47864;52.526;19.672;2023-03-22T10:05:02;100550.50;;;11.30;100.00
61908;BME280;47864;52.526;19.672;2023-03-22T10:10:04;100546.22;;;11.63;100.00
61908;BME280;47864;52.526;19.672;2023-03-22T10:14:29;100547.69;;;11.32;100.00
61908;BME280;47864;52.526;19.672;2023-03-22T10:16:34;100539.69;;;11.24;100.00
61908;BME280;47864;52.526;19.672;2023-03-22T10:18:41;100534.03;;;11.19;100.00
61908;BME280;47864;52.526;19.672;2023-03-22T10:23:06;100538.50;;;11.78;100.00
61908;BME280;47864;52.526;19.672;2023-03-22T10:25:15;100548.84;;;11.89;100.00
61908;BME280;47864;52.526;19.672;2023-03-22T10:27:19;100543.34;;;11.82;100.00
61908;BME280;47864;52.526;19.672;2023-03-22T10:29:39;100549.72;;;11.98;100.00
61908;BME280;47864;52.526;19.672;2023-03-22T10:31:43;100521.41;;;11.80;100.00
61908;BME280;47864;52.526;19.672;2023-03-22T10:33:51;100536.69;;;11.87;100.00
61908;BME280;47864;52.526;19.672;2023-03-22T10:35:55;100536.94;;;11.67;100.00
61908;BME280;47864;52.526;19.672;2023-03-22T10:38:01;100531.75;;;11.92;100.00
61908;BME280;47864;52.526;19.672;2023-03-22T10:40:06;100522.28;;;11.89;100.00
61908;BME280;47864;52.526;19.672;2023-03-22T10:42:12;100530.06;;;11.82;100.00
61908;BME280;47864;52.526;19.672;2023-03-22T10:44:16;100542.56;;;11.98;100.00
61908;BME280;47864;52.526;19.672;2023-03-22T10:46:23;100533.13;;;12.12;100.00
61908;BME280;47864;52.526;19.672;2023-03-22T10:48:38;100524.72;;;12.49;100.00
61908;BME280;47864;52.526;19.672;2023-03-22T10:50:43;100521.91;;;12.42;100.00
61908;BME280;47864;52.526;19.672;2023-03-22T10:52:57;100531.66;;;12.17;100.00
61908;BME280;47864;52.526;19.672;2023-03-22T10:55:02;100519.19;;;12.10;100.00
61908;BME280;47864;52.526;19.672;2023-03-22T10:57:05;100522.41;;;12.54;100.00
61908;BME280;47864;52.526;19.672;2023-03-22T10:59:06;100518.06;;;12.61;100.00
61908;BME280;47864;52.526;19.672;2023-03-22T11:01:10;100509.94;;;12.71;100.00
61908;BME280;47864;52.526;19.672;2023-03-22T11:03:26;100512.94;;;12.84;100.00
61908;BME280;47864;52.526;19.672;2023-03-22T11:05:28;100511.09;;;12.84;100.00
61908;BME280;47864;52.526;19.672;2023-03-22T11:07:34;100504.59;;;12.71;100.00
61908;BME280;47864;52.526;19.672;2023-03-22T11:09:36;100502.06;;;13.02;100.00
61908;BME280;47864;52.526;19.672;2023-03-22T11:11:49;100495.94;;;13.09;100.00
61908;BME280;47864;52.526;19.672;2023-03-22T11:14:05;100514.22;;;13.28;100.00
61908;BME280;47864;52.526;19.672;2023-03-22T11:16:08;100486.28;;;13.24;100.00
61908;BME280;47864;52.526;19.672;2023-03-22T11:18:14;100501.69;;;13.37;100.00